sensor_id;sensor_type;location;lat;lon;timestamp;P1;durP1;ratioP1;P2;durP2;ratioP2
80637;SDS011;69991;51.760;19.528;2024-02-26T00:00:45;19.60;;;10.20;;
80637;SDS011;69991;51.760;19.528;2024-02-26T00:03:53;19.50;;;9.40;;
80637;SDS011;69991;51.760;19.528;2024-02-26T00:06:23;16.90;;;9.00;;
80637;SDS011;69991;51.760;19.528;2024-02-26T00:08:53;17.50;;;8.20;;
80637;SDS011;69991;51.760;19.528;2024-02-26T00:11:21;18.20;;;8.30;;
80637;SDS011;69991;51.760;19.528;2024-02-26T00:13:51;17.70;;;8.70;;
80637;SDS011;69991;51.760;19.528;2024-02-26T00:16:20;18.70;;;8.30;;
80637;SDS011;69991;51.760;19.528;2024-02-26T00:18:49;15.80;;;8.80;;
80637;SDS011;69991;51.760;19.528;2024-02-26T00:21:18;17.80;;;8.40;;
80637;SDS011;69991;51.760;19.528;2024-02-26T00:23:49;17.60;;;8.80;;
80637;SDS011;69991;51.760;19.528;2024-02-26T00:28:48;16.10;;;8.10;;
80637;SDS011;69991;51.760;19.528;2024-02-26T00:31:17;17.60;;;9.50;;
80637;SDS011;69991;51.760;19.528;2024-02-26T00:33:46;24.70;;;10.90;;
80637;SDS011;69991;51.760;19.528;2024-02-26T00:36:15;20.00;;;10.00;;
80637;SDS011;69991;51.760;19.528;2024-02-26T00:38:44;21.00;;;9.60;;
80637;SDS011;69991;51.760;19.528;2024-02-26T00:41:22;19.30;;;10.20;;
80637;SDS011;69991;51.760;19.528;2024-02-26T00:43:52;21.30;;;9.90;;
80637;SDS011;69991;51.760;19.528;2024-02-26T00:46:21;17.30;;;9.30;;
80637;SDS011;69991;51.760;19.528;2024-02-26T00:48:50;19.90;;;9.10;;
80637;SDS011;69991;51.760;19.528;2024-02-26T00:51:19;19.10;;;9.40;;
80637;SDS011;69991;51.760;19.528;2024-02-26T00:53:53;20.70;;;9.40;;
80637;SDS011;69991;51.760;19.528;2024-02-26T00:56:23;18.30;;;8.30;;
80637;SDS011;69991;51.760;19.528;2024-02-26T00:58:52;17.00;;;8.40;;
80637;SDS011;69991;51.760;19.528;2024-02-26T01:01:21;18.40;;;8.20;;
80637;SDS011;69991;51.760;19.528;2024-02-26T01:03:50;16.60;;;8.40;;
80637;SDS011;69991;51.760;19.528;2024-02-26T01:06:20;15.10;;;7.70;;
80637;SDS011;69991;51.760;19.528;2024-02-26T01:08:51;14.30;;;7.60;;
80637;SDS011;69991;51.760;19.528;2024-02-26T01:11:20;16.10;;;8.50;;
80637;SDS011;69991;51.760;19.528;2024-02-26T01:13:49;16.60;;;7.70;;
80637;SDS011;69991;51.760;19.528;2024-02-26T01:16:22;16.80;;;8.80;;
80637;SDS011;69991;51.760;19.528;2024-02-26T01:18:54;18.70;;;9.80;;
80637;SDS011;69991;51.760;19.528;2024-02-26T01:21:23;23.40;;;10.00;;
80637;SDS011;69991;51.760;19.528;2024-02-26T01:23:52;24.50;;;10.90;;
80637;SDS011;69991;51.760;19.528;2024-02-26T01:26:21;22.90;;;11.80;;
80637;SDS011;69991;51.760;19.528;2024-02-26T01:28:50;22.70;;;12.10;;
80637;SDS011;69991;51.760;19.528;2024-02-26T01:31:19;24.10;;;11.50;;
80637;SDS011;69991;51.760;19.528;2024-02-26T01:33:48;20.50;;;11.20;;
80637;SDS011;69991;51.760;19.528;2024-02-26T01:36:17;21.40;;;11.50;;
80637;SDS011;69991;51.760;19.528;2024-02-26T01:38:46;23.20;;;11.40;;
80637;SDS011;69991;51.760;19.528;2024-02-26T01:41:16;20.90;;;11.20;;
80637;SDS011;69991;51.760;19.528;2024-02-26T01:43:45;25.00;;;12.40;;
80637;SDS011;69991;51.760;19.528;2024-02-26T01:46:14;23.70;;;11.20;;
80637;SDS011;69991;51.760;19.528;2024-02-26T01:48:43;22.90;;;11.20;;
80637;SDS011;69991;51.760;19.528;2024-02-26T01:51:13;25.60;;;12.70;;
80637;SDS011;69991;51.760;19.528;2024-02-26T01:53:43;20.60;;;10.50;;
80637;SDS011;69991;51.760;19.528;2024-02-26T01:56:12;20.70;;;10.00;;
80637;SDS011;69991;51.760;19.528;2024-02-26T01:58:41;20.20;;;10.70;;
80637;SDS011;69991;51.760;19.528;2024-02-26T02:01:12;25.50;;;11.70;;
80637;SDS011;69991;51.760;19.528;2024-02-26T02:03:41;21.60;;;11.40;;
80637;SDS011;69991;51.760;19.528;2024-02-26T02:06:11;20.40;;;10.20;;
80637;SDS011;69991;51.760;19.528;2024-02-26T02:08:41;21.00;;;10.50;;
80637;SDS011;69991;51.760;19.528;2024-02-26T02:11:10;19.10;;;10.00;;
80637;SDS011;69991;51.760;19.528;2024-02-26T02:13:43;16.60;;;8.50;;
80637;SDS011;69991;51.760;19.528;2024-02-26T02:16:12;17.50;;;8.80;;
80637;SDS011;69991;51.760;19.528;2024-02-26T02:18:42;19.80;;;9.20;;
80637;SDS011;69991;51.760;19.528;2024-02-26T02:21:11;18.30;;;8.70;;
80637;SDS011;69991;51.760;19.528;2024-02-26T02:23:40;16.20;;;9.20;;
80637;SDS011;69991;51.760;19.528;2024-02-26T02:26:11;18.10;;;9.00;;
80637;SDS011;69991;51.760;19.528;2024-02-26T02:28:44;18.00;;;8.80;;
80637;SDS011;69991;51.760;19.528;2024-02-26T02:31:15;19.60;;;9.50;;
80637;SDS011;69991;51.760;19.528;2024-02-26T02:33:45;14.80;;;7.70;;
80637;SDS011;69991;51.760;19.528;2024-02-26T02:36:15;16.70;;;8.40;;
80637;SDS011;69991;51.760;19.528;2024-02-26T02:38:48;19.70;;;9.80;;
80637;SDS011;69991;51.760;19.528;2024-02-26T02:41:24;17.00;;;9.10;;
80637;SDS011;69991;51.760;19.528;2024-02-26T02:43:55;20.30;;;9.90;;
80637;SDS011;69991;51.760;19.528;2024-02-26T02:46:24;17.00;;;8.70;;
80637;SDS011;69991;51.760;19.528;2024-02-26T02:48:52;17.80;;;8.60;;
80637;SDS011;69991;51.760;19.528;2024-02-26T02:51:22;15.30;;;8.10;;
80637;SDS011;69991;51.760;19.528;2024-02-26T02:53:51;22.00;;;9.90;;
80637;SDS011;69991;51.760;19.528;2024-02-26T02:56:20;18.50;;;8.90;;
80637;SDS011;69991;51.760;19.528;2024-02-26T02:58:49;17.30;;;8.70;;
80637;SDS011;69991;51.760;19.528;2024-02-26T03:01:18;14.90;;;7.90;;
80637;SDS011;69991;51.760;19.528;2024-02-26T03:03:47;18.50;;;8.30;;
80637;SDS011;69991;51.760;19.528;2024-02-26T03:06:16;17.50;;;8.10;;
80637;SDS011;69991;51.760;19.528;2024-02-26T03:08:46;18.00;;;8.90;;
80637;SDS011;69991;51.760;19.528;2024-02-26T03:11:15;15.50;;;8.10;;
80637;SDS011;69991;51.760;19.528;2024-02-26T03:13:44;16.30;;;7.80;;
80637;SDS011;69991;51.760;19.528;2024-02-26T03:16:14;17.60;;;8.90;;
80637;SDS011;69991;51.760;19.528;2024-02-26T03:18:43;17.40;;;9.10;;
80637;SDS011;69991;51.760;19.528;2024-02-26T03:21:12;19.50;;;8.80;;
80637;SDS011;69991;51.760;19.528;2024-02-26T03:23:41;16.90;;;9.30;;
80637;SDS011;69991;51.760;19.528;2024-02-26T03:26:11;16.80;;;8.50;;
80637;SDS011;69991;51.760;19.528;2024-02-26T03:28:43;17.80;;;8.70;;
80637;SDS011;69991;51.760;19.528;2024-02-26T03:31:12;17.00;;;8.10;;
80637;SDS011;69991;51.760;19.528;2024-02-26T03:33:43;17.40;;;8.80;;
80637;SDS011;69991;51.760;19.528;2024-02-26T03:36:12;17.60;;;8.00;;
80637;SDS011;69991;51.760;19.528;2024-02-26T03:38:42;17.00;;;8.60;;
80637;SDS011;69991;51.760;19.528;2024-02-26T03:41:11;16.40;;;8.00;;
80637;SDS011;69991;51.760;19.528;2024-02-26T03:43:40;20.20;;;9.30;;
80637;SDS011;69991;51.760;19.528;2024-02-26T03:46:09;18.20;;;8.10;;
80637;SDS011;69991;51.760;19.528;2024-02-26T03:48:40;15.70;;;7.80;;
80637;SDS011;69991;51.760;19.528;2024-02-26T03:51:10;17.30;;;8.30;;
80637;SDS011;69991;51.760;19.528;2024-02-26T03:53:39;17.20;;;7.30;;
80637;SDS011;69991;51.760;19.528;2024-02-26T03:56:08;18.80;;;9.50;;
80637;SDS011;69991;51.760;19.528;2024-02-26T03:58:40;18.70;;;9.00;;
80637;SDS011;69991;51.760;19.528;2024-02-26T04:01:09;16.80;;;9.40;;
80637;SDS011;69991;51.760;19.528;2024-02-26T04:03:39;17.20;;;8.80;;
80637;SDS011;69991;51.760;19.528;2024-02-26T04:06:09;17.10;;;8.20;;
80637;SDS011;69991;51.760;19.528;2024-02-26T04:08:39;14.90;;;8.00;;
80637;SDS011;69991;51.760;19.528;2024-02-26T04:11:09;19.40;;;9.20;;
80637;SDS011;69991;51.760;19.528;2024-02-26T04:13:38;17.20;;;8.10;;
80637;SDS011;69991;51.760;19.528;2024-02-26T04:16:07;16.90;;;8.50;;
80637;SDS011;69991;51.760;19.528;2024-02-26T04:18:36;18.10;;;9.40;;
80637;SDS011;69991;51.760;19.528;2024-02-26T04:21:06;18.10;;;8.70;;
80637;SDS011;69991;51.760;19.528;2024-02-26T04:23:36;19.80;;;8.10;;
80637;SDS011;69991;51.760;19.528;2024-02-26T04:26:06;17.70;;;8.60;;
80637;SDS011;69991;51.760;19.528;2024-02-26T04:28:35;17.00;;;7.70;;
80637;SDS011;69991;51.760;19.528;2024-02-26T04:31:05;18.00;;;7.70;;
80637;SDS011;69991;51.760;19.528;2024-02-26T04:33:34;16.60;;;7.60;;
80637;SDS011;69991;51.760;19.528;2024-02-26T04:36:04;16.60;;;7.60;;
80637;SDS011;69991;51.760;19.528;2024-02-26T04:38:33;20.10;;;8.90;;
80637;SDS011;69991;51.760;19.528;2024-02-26T04:41:02;15.90;;;8.20;;
80637;SDS011;69991;51.760;19.528;2024-02-26T04:43:31;18.60;;;7.90;;
80637;SDS011;69991;51.760;19.528;2024-02-26T04:46:00;17.10;;;8.00;;
80637;SDS011;69991;51.760;19.528;2024-02-26T04:48:29;15.70;;;7.40;;
80637;SDS011;69991;51.760;19.528;2024-02-26T04:50:58;15.90;;;7.40;;
80637;SDS011;69991;51.760;19.528;2024-02-26T04:53:27;15.10;;;7.00;;
80637;SDS011;69991;51.760;19.528;2024-02-26T04:55:56;14.20;;;7.50;;
80637;SDS011;69991;51.760;19.528;2024-02-26T04:58:26;15.80;;;7.50;;
80637;SDS011;69991;51.760;19.528;2024-02-26T05:00:55;13.90;;;7.60;;
80637;SDS011;69991;51.760;19.528;2024-02-26T05:03:24;15.30;;;7.20;;
80637;SDS011;69991;51.760;19.528;2024-02-26T05:05:54;15.20;;;7.20;;
80637;SDS011;69991;51.760;19.528;2024-02-26T05:08:23;17.80;;;7.90;;
80637;SDS011;69991;51.760;19.528;2024-02-26T05:10:52;18.60;;;8.40;;
80637;SDS011;69991;51.760;19.528;2024-02-26T05:13:21;15.60;;;8.10;;
80637;SDS011;69991;51.760;19.528;2024-02-26T05:15:50;17.20;;;9.10;;
80637;SDS011;69991;51.760;19.528;2024-02-26T05:18:24;17.70;;;9.10;;
80637;SDS011;69991;51.760;19.528;2024-02-26T05:20:53;19.10;;;9.30;;
80637;SDS011;69991;51.760;19.528;2024-02-26T05:23:22;15.80;;;8.10;;
80637;SDS011;69991;51.760;19.528;2024-02-26T05:25:51;15.80;;;8.50;;
80637;SDS011;69991;51.760;19.528;2024-02-26T05:28:20;27.20;;;13.40;;
80637;SDS011;69991;51.760;19.528;2024-02-26T05:30:50;20.40;;;9.70;;
80637;SDS011;69991;51.760;19.528;2024-02-26T05:33:18;17.80;;;8.80;;
80637;SDS011;69991;51.760;19.528;2024-02-26T05:35:48;18.80;;;8.70;;
80637;SDS011;69991;51.760;19.528;2024-02-26T05:38:17;16.40;;;9.10;;
80637;SDS011;69991;51.760;19.528;2024-02-26T05:40:45;17.00;;;8.60;;
80637;SDS011;69991;51.760;19.528;2024-02-26T05:43:15;16.80;;;8.90;;
80637;SDS011;69991;51.760;19.528;2024-02-26T05:45:47;21.50;;;10.20;;
80637;SDS011;69991;51.760;19.528;2024-02-26T05:48:16;16.20;;;9.00;;
80637;SDS011;69991;51.760;19.528;2024-02-26T05:50:45;17.10;;;7.80;;
80637;SDS011;69991;51.760;19.528;2024-02-26T05:53:15;20.00;;;9.00;;
80637;SDS011;69991;51.760;19.528;2024-02-26T05:55:44;18.70;;;9.50;;
80637;SDS011;69991;51.760;19.528;2024-02-26T05:58:13;18.60;;;9.10;;
80637;SDS011;69991;51.760;19.528;2024-02-26T06:00:43;18.30;;;8.90;;
80637;SDS011;69991;51.760;19.528;2024-02-26T06:03:12;15.80;;;8.80;;
80637;SDS011;69991;51.760;19.528;2024-02-26T06:05:41;15.90;;;8.50;;
80637;SDS011;69991;51.760;19.528;2024-02-26T06:08:11;19.20;;;9.20;;
80637;SDS011;69991;51.760;19.528;2024-02-26T06:10:39;19.40;;;9.50;;
80637;SDS011;69991;51.760;19.528;2024-02-26T06:13:09;15.70;;;8.60;;
80637;SDS011;69991;51.760;19.528;2024-02-26T06:15:38;20.20;;;9.60;;
80637;SDS011;69991;51.760;19.528;2024-02-26T06:18:07;18.60;;;9.70;;
80637;SDS011;69991;51.760;19.528;2024-02-26T06:20:37;17.80;;;9.50;;
80637;SDS011;69991;51.760;19.528;2024-02-26T06:23:06;19.40;;;10.20;;
80637;SDS011;69991;51.760;19.528;2024-02-26T06:25:36;18.20;;;9.10;;
80637;SDS011;69991;51.760;19.528;2024-02-26T06:28:05;17.30;;;8.90;;
80637;SDS011;69991;51.760;19.528;2024-02-26T06:30:34;18.10;;;10.10;;
80637;SDS011;69991;51.760;19.528;2024-02-26T06:33:04;23.10;;;11.90;;
80637;SDS011;69991;51.760;19.528;2024-02-26T06:35:36;18.90;;;9.90;;
80637;SDS011;69991;51.760;19.528;2024-02-26T06:38:05;17.70;;;9.60;;
80637;SDS011;69991;51.760;19.528;2024-02-26T06:40:35;19.20;;;9.70;;
80637;SDS011;69991;51.760;19.528;2024-02-26T06:43:04;16.50;;;9.60;;
80637;SDS011;69991;51.760;19.528;2024-02-26T06:45:33;19.10;;;9.90;;
80637;SDS011;69991;51.760;19.528;2024-02-26T06:48:02;19.00;;;9.00;;
80637;SDS011;69991;51.760;19.528;2024-02-26T06:50:31;18.60;;;9.10;;
80637;SDS011;69991;51.760;19.528;2024-02-26T06:53:00;17.00;;;9.30;;
80637;SDS011;69991;51.760;19.528;2024-02-26T06:55:29;19.20;;;9.30;;
80637;SDS011;69991;51.760;19.528;2024-02-26T06:57:58;16.60;;;8.50;;
80637;SDS011;69991;51.760;19.528;2024-02-26T07:00:27;16.10;;;8.10;;
80637;SDS011;69991;51.760;19.528;2024-02-26T07:02:56;17.60;;;8.80;;
80637;SDS011;69991;51.760;19.528;2024-02-26T07:05:27;17.20;;;9.00;;
80637;SDS011;69991;51.760;19.528;2024-02-26T07:07:57;14.70;;;7.80;;
80637;SDS011;69991;51.760;19.528;2024-02-26T07:10:26;15.10;;;7.60;;
80637;SDS011;69991;51.760;19.528;2024-02-26T07:12:55;15.70;;;7.60;;
80637;SDS011;69991;51.760;19.528;2024-02-26T07:15:24;16.40;;;8.20;;
80637;SDS011;69991;51.760;19.528;2024-02-26T07:17:53;13.90;;;8.10;;
80637;SDS011;69991;51.760;19.528;2024-02-26T07:20:22;16.90;;;8.70;;
80637;SDS011;69991;51.760;19.528;2024-02-26T07:22:51;16.20;;;8.90;;
80637;SDS011;69991;51.760;19.528;2024-02-26T07:25:20;16.80;;;8.60;;
80637;SDS011;69991;51.760;19.528;2024-02-26T07:27:50;16.40;;;8.60;;
80637;SDS011;69991;51.760;19.528;2024-02-26T07:30:19;13.50;;;8.20;;
80637;SDS011;69991;51.760;19.528;2024-02-26T07:32:48;16.80;;;8.90;;
80637;SDS011;69991;51.760;19.528;2024-02-26T07:35:19;15.30;;;8.50;;
80637;SDS011;69991;51.760;19.528;2024-02-26T07:37:48;16.10;;;8.80;;
80637;SDS011;69991;51.760;19.528;2024-02-26T07:40:18;15.80;;;8.10;;
80637;SDS011;69991;51.760;19.528;2024-02-26T07:42:47;17.00;;;8.80;;
80637;SDS011;69991;51.760;19.528;2024-02-26T07:45:17;18.00;;;8.50;;
80637;SDS011;69991;51.760;19.528;2024-02-26T07:47:48;15.10;;;8.50;;
80637;SDS011;69991;51.760;19.528;2024-02-26T07:50:18;16.60;;;8.10;;
80637;SDS011;69991;51.760;19.528;2024-02-26T07:52:48;16.70;;;8.40;;
80637;SDS011;69991;51.760;19.528;2024-02-26T07:55:20;15.30;;;7.60;;
80637;SDS011;69991;51.760;19.528;2024-02-26T07:57:49;16.40;;;8.70;;
80637;SDS011;69991;51.760;19.528;2024-02-26T08:00:18;14.80;;;8.50;;
80637;SDS011;69991;51.760;19.528;2024-02-26T08:02:47;15.20;;;7.50;;
80637;SDS011;69991;51.760;19.528;2024-02-26T08:05:16;15.30;;;8.20;;
80637;SDS011;69991;51.760;19.528;2024-02-26T08:07:46;13.20;;;7.30;;
80637;SDS011;69991;51.760;19.528;2024-02-26T08:10:15;12.70;;;6.90;;
80637;SDS011;69991;51.760;19.528;2024-02-26T08:12:44;14.80;;;7.20;;
80637;SDS011;69991;51.760;19.528;2024-02-26T08:15:14;16.70;;;7.80;;
80637;SDS011;69991;51.760;19.528;2024-02-26T08:17:43;13.90;;;7.20;;
80637;SDS011;69991;51.760;19.528;2024-02-26T08:20:12;10.90;;;6.50;;
80637;SDS011;69991;51.760;19.528;2024-02-26T08:25:13;11.90;;;6.80;;
80637;SDS011;69991;51.760;19.528;2024-02-26T08:27:42;14.30;;;6.70;;
80637;SDS011;69991;51.760;19.528;2024-02-26T08:30:12;12.80;;;7.10;;
80637;SDS011;69991;51.760;19.528;2024-02-26T08:32:47;11.80;;;6.50;;
80637;SDS011;69991;51.760;19.528;2024-02-26T08:35:20;13.40;;;6.20;;
80637;SDS011;69991;51.760;19.528;2024-02-26T08:37:52;13.80;;;7.50;;
80637;SDS011;69991;51.760;19.528;2024-02-26T08:40:21;13.50;;;6.80;;
80637;SDS011;69991;51.760;19.528;2024-02-26T08:42:50;11.10;;;5.90;;
80637;SDS011;69991;51.760;19.528;2024-02-26T08:45:19;12.20;;;6.60;;
80637;SDS011;69991;51.760;19.528;2024-02-26T08:47:48;12.80;;;6.90;;
80637;SDS011;69991;51.760;19.528;2024-02-26T08:50:17;10.90;;;6.20;;
80637;SDS011;69991;51.760;19.528;2024-02-26T08:52:46;11.20;;;6.10;;
80637;SDS011;69991;51.760;19.528;2024-02-26T08:55:19;12.20;;;6.00;;
80637;SDS011;69991;51.760;19.528;2024-02-26T08:57:48;13.20;;;7.30;;
80637;SDS011;69991;51.760;19.528;2024-02-26T09:00:17;11.20;;;5.80;;
80637;SDS011;69991;51.760;19.528;2024-02-26T09:05:18;11.70;;;6.60;;
80637;SDS011;69991;51.760;19.528;2024-02-26T09:07:47;11.30;;;5.90;;
80637;SDS011;69991;51.760;19.528;2024-02-26T09:10:16;12.90;;;6.80;;
80637;SDS011;69991;51.760;19.528;2024-02-26T09:12:45;11.10;;;5.90;;
80637;SDS011;69991;51.760;19.528;2024-02-26T09:15:18;13.10;;;6.70;;
80637;SDS011;69991;51.760;19.528;2024-02-26T09:17:47;11.20;;;6.10;;
80637;SDS011;69991;51.760;19.528;2024-02-26T09:20:19;11.70;;;6.40;;
80637;SDS011;69991;51.760;19.528;2024-02-26T09:22:52;11.90;;;6.40;;
80637;SDS011;69991;51.760;19.528;2024-02-26T09:25:22;13.40;;;6.60;;
80637;SDS011;69991;51.760;19.528;2024-02-26T09:27:51;11.50;;;5.70;;
80637;SDS011;69991;51.760;19.528;2024-02-26T09:30:20;8.80;;;5.30;;
80637;SDS011;69991;51.760;19.528;2024-02-26T09:32:50;10.50;;;5.60;;
80637;SDS011;69991;51.760;19.528;2024-02-26T09:35:20;10.50;;;5.60;;
80637;SDS011;69991;51.760;19.528;2024-02-26T09:37:50;10.10;;;5.70;;
80637;SDS011;69991;51.760;19.528;2024-02-26T09:40:19;10.30;;;5.40;;
80637;SDS011;69991;51.760;19.528;2024-02-26T09:42:48;9.80;;;5.50;;
80637;SDS011;69991;51.760;19.528;2024-02-26T09:45:21;10.80;;;5.30;;
80637;SDS011;69991;51.760;19.528;2024-02-26T09:47:51;9.80;;;5.90;;
80637;SDS011;69991;51.760;19.528;2024-02-26T09:50:20;8.60;;;4.60;;
80637;SDS011;69991;51.760;19.528;2024-02-26T09:52:52;8.30;;;4.70;;
80637;SDS011;69991;51.760;19.528;2024-02-26T09:55:22;8.40;;;4.50;;
80637;SDS011;69991;51.760;19.528;2024-02-26T09:57:51;7.90;;;4.40;;
80637;SDS011;69991;51.760;19.528;2024-02-26T10:00:21;7.90;;;4.80;;
80637;SDS011;69991;51.760;19.528;2024-02-26T10:02:51;8.50;;;4.40;;
80637;SDS011;69991;51.760;19.528;2024-02-26T10:05:21;8.20;;;4.20;;
80637;SDS011;69991;51.760;19.528;2024-02-26T10:07:51;7.70;;;3.80;;
80637;SDS011;69991;51.760;19.528;2024-02-26T10:10:21;8.40;;;4.40;;
80637;SDS011;69991;51.760;19.528;2024-02-26T10:12:50;8.20;;;4.50;;
80637;SDS011;69991;51.760;19.528;2024-02-26T10:15:19;7.20;;;4.00;;
80637;SDS011;69991;51.760;19.528;2024-02-26T10:17:49;7.10;;;3.90;;
80637;SDS011;69991;51.760;19.528;2024-02-26T10:20:18;8.10;;;3.90;;
80637;SDS011;69991;51.760;19.528;2024-02-26T10:22:51;9.00;;;3.80;;
80637;SDS011;69991;51.760;19.528;2024-02-26T10:25:21;7.30;;;3.50;;
80637;SDS011;69991;51.760;19.528;2024-02-26T10:27:50;7.10;;;4.00;;
80637;SDS011;69991;51.760;19.528;2024-02-26T10:30:20;6.60;;;3.40;;
80637;SDS011;69991;51.760;19.528;2024-02-26T10:32:55;7.60;;;4.30;;
80637;SDS011;69991;51.760;19.528;2024-02-26T10:35:24;6.10;;;3.30;;
80637;SDS011;69991;51.760;19.528;2024-02-26T10:37:54;9.00;;;4.10;;
80637;SDS011;69991;51.760;19.528;2024-02-26T10:40:24;6.70;;;3.80;;
80637;SDS011;69991;51.760;19.528;2024-02-26T10:42:52;7.40;;;4.00;;
80637;SDS011;69991;51.760;19.528;2024-02-26T10:45:21;7.20;;;3.80;;
80637;SDS011;69991;51.760;19.528;2024-02-26T10:47:51;7.20;;;3.80;;
80637;SDS011;69991;51.760;19.528;2024-02-26T10:50:20;9.10;;;5.40;;
80637;SDS011;69991;51.760;19.528;2024-02-26T10:52:49;7.10;;;4.60;;
80637;SDS011;69991;51.760;19.528;2024-02-26T10:55:21;8.10;;;4.00;;
80637;SDS011;69991;51.760;19.528;2024-02-26T10:57:52;6.20;;;3.60;;
80637;SDS011;69991;51.760;19.528;2024-02-26T11:00:24;6.60;;;4.00;;
80637;SDS011;69991;51.760;19.528;2024-02-26T11:02:53;7.00;;;3.50;;
80637;SDS011;69991;51.760;19.528;2024-02-26T11:05:23;6.90;;;3.70;;
80637;SDS011;69991;51.760;19.528;2024-02-26T11:07:52;5.50;;;3.60;;
80637;SDS011;69991;51.760;19.528;2024-02-26T11:10:21;6.70;;;3.70;;
80637;SDS011;69991;51.760;19.528;2024-02-26T11:12:51;7.00;;;3.90;;
80637;SDS011;69991;51.760;19.528;2024-02-26T11:15:21;9.40;;;4.60;;
80637;SDS011;69991;51.760;19.528;2024-02-26T11:17:51;7.30;;;4.10;;
80637;SDS011;69991;51.760;19.528;2024-02-26T11:20:21;5.20;;;2.80;;
80637;SDS011;69991;51.760;19.528;2024-02-26T11:22:54;6.10;;;3.70;;
80637;SDS011;69991;51.760;19.528;2024-02-26T11:25:24;6.30;;;3.90;;
80637;SDS011;69991;51.760;19.528;2024-02-26T11:27:58;6.90;;;3.80;;
80637;SDS011;69991;51.760;19.528;2024-02-26T11:30:32;7.70;;;3.60;;
80637;SDS011;69991;51.760;19.528;2024-02-26T11:33:02;5.80;;;3.30;;
80637;SDS011;69991;51.760;19.528;2024-02-26T11:35:32;6.30;;;3.50;;
80637;SDS011;69991;51.760;19.528;2024-02-26T11:38:01;7.80;;;4.20;;
80637;SDS011;69991;51.760;19.528;2024-02-26T11:40:31;7.40;;;4.20;;
80637;SDS011;69991;51.760;19.528;2024-02-26T11:43:01;9.40;;;5.00;;
80637;SDS011;69991;51.760;19.528;2024-02-26T11:48:15;8.20;;;5.00;;
80637;SDS011;69991;51.760;19.528;2024-02-26T11:58:48;8.50;;;4.80;;
80637;SDS011;69991;51.760;19.528;2024-02-26T12:04:18;7.50;;;4.70;;
80637;SDS011;69991;51.760;19.528;2024-02-26T12:07:01;7.40;;;4.70;;
80637;SDS011;69991;51.760;19.528;2024-02-26T12:12:04;8.90;;;5.30;;
80637;SDS011;69991;51.760;19.528;2024-02-26T12:14:38;6.50;;;4.20;;
80637;SDS011;69991;51.760;19.528;2024-02-26T12:17:18;7.00;;;4.80;;
80637;SDS011;69991;51.760;19.528;2024-02-26T12:19:52;6.70;;;4.50;;
80637;SDS011;69991;51.760;19.528;2024-02-26T12:22:22;7.50;;;5.00;;
80637;SDS011;69991;51.760;19.528;2024-02-26T12:24:59;7.90;;;4.60;;
80637;SDS011;69991;51.760;19.528;2024-02-26T12:27:29;9.60;;;5.20;;
80637;SDS011;69991;51.760;19.528;2024-02-26T12:29:59;10.80;;;6.30;;
80637;SDS011;69991;51.760;19.528;2024-02-26T12:32:28;9.30;;;5.50;;
80637;SDS011;69991;51.760;19.528;2024-02-26T12:34:57;12.00;;;6.40;;
80637;SDS011;69991;51.760;19.528;2024-02-26T12:37:28;11.20;;;5.70;;
80637;SDS011;69991;51.760;19.528;2024-02-26T12:39:57;10.00;;;5.90;;
80637;SDS011;69991;51.760;19.528;2024-02-26T12:42:26;8.60;;;4.70;;
80637;SDS011;69991;51.760;19.528;2024-02-26T12:44:55;7.90;;;4.10;;
80637;SDS011;69991;51.760;19.528;2024-02-26T12:47:28;5.00;;;3.40;;
80637;SDS011;69991;51.760;19.528;2024-02-26T12:49:57;6.70;;;3.90;;
80637;SDS011;69991;51.760;19.528;2024-02-26T12:52:26;6.60;;;3.20;;
80637;SDS011;69991;51.760;19.528;2024-02-26T12:54:55;6.90;;;3.50;;
80637;SDS011;69991;51.760;19.528;2024-02-26T12:57:24;5.90;;;3.20;;
80637;SDS011;69991;51.760;19.528;2024-02-26T12:59:54;5.50;;;3.20;;
80637;SDS011;69991;51.760;19.528;2024-02-26T13:02:23;6.80;;;3.60;;
80637;SDS011;69991;51.760;19.528;2024-02-26T13:04:54;5.50;;;3.00;;
80637;SDS011;69991;51.760;19.528;2024-02-26T13:07:26;5.60;;;2.80;;
80637;SDS011;69991;51.760;19.528;2024-02-26T13:09:55;5.20;;;2.80;;
80637;SDS011;69991;51.760;19.528;2024-02-26T13:12:24;5.30;;;2.90;;
80637;SDS011;69991;51.760;19.528;2024-02-26T13:15:00;5.40;;;2.50;;
80637;SDS011;69991;51.760;19.528;2024-02-26T13:17:33;6.40;;;2.80;;
80637;SDS011;69991;51.760;19.528;2024-02-26T13:20:03;4.80;;;2.50;;
80637;SDS011;69991;51.760;19.528;2024-02-26T13:22:34;4.70;;;2.90;;
80637;SDS011;69991;51.760;19.528;2024-02-26T13:25:03;4.50;;;2.60;;
80637;SDS011;69991;51.760;19.528;2024-02-26T13:27:36;5.80;;;3.20;;
80637;SDS011;69991;51.760;19.528;2024-02-26T13:30:11;5.60;;;2.70;;
80637;SDS011;69991;51.760;19.528;2024-02-26T13:32:41;4.40;;;2.40;;
80637;SDS011;69991;51.760;19.528;2024-02-26T13:35:12;5.30;;;2.40;;
80637;SDS011;69991;51.760;19.528;2024-02-26T13:37:43;4.70;;;2.70;;
80637;SDS011;69991;51.760;19.528;2024-02-26T13:40:12;5.00;;;2.90;;
80637;SDS011;69991;51.760;19.528;2024-02-26T13:42:42;6.20;;;2.50;;
80637;SDS011;69991;51.760;19.528;2024-02-26T13:45:11;5.80;;;2.70;;
80637;SDS011;69991;51.760;19.528;2024-02-26T13:47:40;5.50;;;3.00;;
80637;SDS011;69991;51.760;19.528;2024-02-26T13:50:10;5.80;;;3.20;;
80637;SDS011;69991;51.760;19.528;2024-02-26T13:52:39;6.00;;;3.00;;
80637;SDS011;69991;51.760;19.528;2024-02-26T13:55:08;6.70;;;3.20;;
80637;SDS011;69991;51.760;19.528;2024-02-26T13:57:37;6.00;;;3.10;;
80637;SDS011;69991;51.760;19.528;2024-02-26T14:00:07;7.20;;;3.90;;
80637;SDS011;69991;51.760;19.528;2024-02-26T14:02:39;6.40;;;3.40;;
80637;SDS011;69991;51.760;19.528;2024-02-26T14:05:08;7.80;;;3.90;;
80637;SDS011;69991;51.760;19.528;2024-02-26T14:07:37;6.90;;;4.30;;
80637;SDS011;69991;51.760;19.528;2024-02-26T14:10:07;6.50;;;3.80;;
80637;SDS011;69991;51.760;19.528;2024-02-26T14:12:36;6.20;;;3.70;;
80637;SDS011;69991;51.760;19.528;2024-02-26T14:15:06;7.10;;;3.70;;
80637;SDS011;69991;51.760;19.528;2024-02-26T14:17:38;7.80;;;4.20;;
80637;SDS011;69991;51.760;19.528;2024-02-26T14:20:07;7.10;;;3.60;;
80637;SDS011;69991;51.760;19.528;2024-02-26T14:22:39;7.40;;;3.90;;
80637;SDS011;69991;51.760;19.528;2024-02-26T14:25:08;11.90;;;4.20;;
80637;SDS011;69991;51.760;19.528;2024-02-26T14:27:38;8.20;;;4.40;;
80637;SDS011;69991;51.760;19.528;2024-02-26T14:30:10;7.90;;;4.40;;
80637;SDS011;69991;51.760;19.528;2024-02-26T14:32:40;7.00;;;3.90;;
80637;SDS011;69991;51.760;19.528;2024-02-26T14:37:45;6.80;;;3.60;;
80637;SDS011;69991;51.760;19.528;2024-02-26T14:40:16;7.30;;;4.30;;
80637;SDS011;69991;51.760;19.528;2024-02-26T14:42:45;7.40;;;4.20;;
80637;SDS011;69991;51.760;19.528;2024-02-26T14:45:15;7.00;;;3.90;;
80637;SDS011;69991;51.760;19.528;2024-02-26T14:47:45;7.20;;;4.00;;
80637;SDS011;69991;51.760;19.528;2024-02-26T14:50:14;8.20;;;4.60;;
80637;SDS011;69991;51.760;19.528;2024-02-26T14:52:43;9.00;;;5.00;;
80637;SDS011;69991;51.760;19.528;2024-02-26T14:55:12;7.60;;;4.30;;
80637;SDS011;69991;51.760;19.528;2024-02-26T14:57:41;7.60;;;4.00;;
80637;SDS011;69991;51.760;19.528;2024-02-26T15:00:10;7.30;;;4.40;;
80637;SDS011;69991;51.760;19.528;2024-02-26T15:02:40;6.50;;;3.90;;
80637;SDS011;69991;51.760;19.528;2024-02-26T15:05:09;8.60;;;4.80;;
80637;SDS011;69991;51.760;19.528;2024-02-26T15:07:40;6.70;;;4.20;;